createdAt,value
2023-03-08T00:02:29.426Z,99343.19
2023-03-08T00:05:17.255Z,99321.25
2023-03-08T00:08:05.135Z,99352.06
2023-03-08T00:10:52.822Z,99360.88
2023-03-08T00:13:41.031Z,99321.50
2023-03-08T00:16:28.749Z,99336.53
2023-03-08T00:19:16.640Z,99342.94
2023-03-08T00:22:04.228Z,99348.28
2023-03-08T00:24:53.503Z,99338.44
2023-03-08T00:27:41.212Z,99342.00
2023-03-08T00:30:29.206Z,99347.81
2023-03-08T00:33:16.826Z,99340.03
2023-03-08T00:36:16.286Z,99345.97
2023-03-08T00:39:04.047Z,99349.75
2023-03-08T00:41:51.684Z,99344.22
2023-03-08T00:44:39.358Z,99305.72
2023-03-08T00:47:27.068Z,99349.44
2023-03-08T00:50:17.159Z,99339.41
2023-03-08T00:53:06.835Z,99343.28
2023-03-08T00:55:57.229Z,99321.41
2023-03-08T00:58:45.771Z,99339.44
2023-03-08T01:01:33.675Z,99337.28
2023-03-08T01:04:21.316Z,99335.47
2023-03-08T01:07:09.008Z,99309.75
2023-03-08T01:09:59.078Z,99325.06
2023-03-08T01:12:46.933Z,99337.94
2023-03-08T01:15:38.721Z,99329.59
2023-03-08T01:18:26.589Z,99335.44
2023-03-08T01:21:14.519Z,99344.13
2023-03-08T01:24:02.435Z,99336.94
2023-03-08T01:26:50.148Z,99333.84
2023-03-08T01:29:39.275Z,99336.13
2023-03-08T01:32:27.410Z,99326.75
2023-03-08T01:35:15.336Z,99334.94
2023-03-08T01:38:03.009Z,99331.16
2023-03-08T01:40:56.787Z,99320.97
2023-03-08T01:43:45.032Z,99327.34
2023-03-08T01:46:37.077Z,99301.28
2023-03-08T01:49:35.720Z,99332.97
2023-03-08T01:52:34.490Z,99327.91
2023-03-08T01:55:22.638Z,99339.63
2023-03-08T01:58:10.733Z,99333.88
2023-03-08T02:00:58.797Z,99331.22
2023-03-08T02:03:47.509Z,99274.97
2023-03-08T02:06:37.272Z,99336.41
2023-03-08T02:09:25.170Z,99330.94
2023-03-08T02:12:14.052Z,99324.38
2023-03-08T02:15:03.982Z,99325.22
2023-03-08T02:17:51.843Z,99326.59
2023-03-08T02:20:42.071Z,99337.81
2023-03-08T02:23:29.809Z,99338.94
2023-03-08T02:26:18.933Z,99310.34
2023-03-08T02:29:06.782Z,99327.28
2023-03-08T02:31:54.420Z,99326.16
2023-03-08T02:34:42.699Z,99348.69
2023-03-08T02:37:32.261Z,99350.00
2023-03-08T02:40:20.375Z,99359.66
2023-03-08T02:43:08.815Z,99356.47
2023-03-08T02:45:59.370Z,99367.56
2023-03-08T02:48:47.263Z,99370.34
2023-03-08T02:51:35.041Z,99337.09
2023-03-08T02:54:22.722Z,99369.81
2023-03-08T02:57:12.909Z,99367.53
2023-03-08T03:00:00.729Z,99372.84
2023-03-08T03:02:49.529Z,99376.41
2023-03-08T03:05:44.002Z,99375.31
2023-03-08T03:08:35.405Z,99350.03
2023-03-08T03:11:24.161Z,99352.28
2023-03-08T03:14:13.225Z,99342.06
2023-03-08T03:17:03.779Z,99378.13
2023-03-08T03:19:51.436Z,99367.13
2023-03-08T03:22:39.174Z,99380.91
2023-03-08T03:25:28.437Z,99382.50
2023-03-08T03:28:17.219Z,99370.66
2023-03-08T03:31:14.391Z,99378.41
2023-03-08T03:34:02.333Z,99385.22
2023-03-08T03:36:50.308Z,99390.88
2023-03-08T03:39:39.447Z,99394.16
2023-03-08T03:42:30.017Z,99397.34
2023-03-08T03:45:26.253Z,99341.47
2023-03-08T03:48:17.372Z,99395.72
2023-03-08T03:51:08.099Z,99399.13
2023-03-08T03:53:58.981Z,99405.03
2023-03-08T03:56:48.482Z,99405.84
2023-03-08T03:59:38.135Z,99414.06
2023-03-08T04:02:28.707Z,99421.94
2023-03-08T04:05:19.771Z,99422.13
2023-03-08T04:08:11.339Z,99410.78
2023-03-08T04:11:01.801Z,99415.88
2023-03-08T04:13:50.726Z,99398.88
2023-03-08T04:16:42.518Z,99363.13
2023-03-08T04:19:38.205Z,99410.44
2023-03-08T04:22:27.938Z,99421.69
2023-03-08T04:25:25.064Z,99404.38
2023-03-08T04:28:18.464Z,99425.06
2023-03-08T04:31:21.558Z,99417.69
2023-03-08T04:34:09.496Z,99396.06
2023-03-08T04:36:57.379Z,99429.69
2023-03-08T04:39:47.123Z,99417.81
2023-03-08T04:42:36.846Z,99428.53
2023-03-08T04:45:28.194Z,99416.69
2023-03-08T04:48:19.648Z,99426.47
2023-03-08T04:51:09.564Z,99428.22
2023-03-08T04:53:57.406Z,99426.78
2023-03-08T04:56:46.723Z,99435.22
2023-03-08T04:59:36.887Z,99441.78
2023-03-08T05:02:29.550Z,99441.59
2023-03-08T05:05:17.616Z,99431.28
2023-03-08T05:08:06.119Z,99447.78
2023-03-08T05:11:00.693Z,99425.78
2023-03-08T05:13:54.272Z,99438.38
2023-03-08T05:16:42.730Z,99450.47
2023-03-08T05:19:31.423Z,99450.16
2023-03-08T05:22:19.270Z,99455.28
2023-03-08T05:25:11.210Z,99402.75
2023-03-08T05:27:59.164Z,99452.41
2023-03-08T05:30:50.165Z,99465.69
2023-03-08T05:33:40.136Z,99408.25
2023-03-08T05:36:28.073Z,99475.66
2023-03-08T05:39:18.463Z,99478.59
2023-03-08T05:42:20.062Z,99482.59
2023-03-08T05:45:08.887Z,99486.25
2023-03-08T05:47:59.531Z,99493.09
2023-03-08T05:50:48.202Z,99478.56
2023-03-08T05:53:36.762Z,99475.44
2023-03-08T05:56:25.825Z,99482.88
2023-03-08T05:59:40.565Z,99483.16
2023-03-08T06:02:30.604Z,99454.28
2023-03-08T06:05:21.043Z,99470.41
2023-03-08T06:08:10.777Z,99476.72
2023-03-08T06:10:59.447Z,99457.38
2023-03-08T06:13:48.400Z,99423.44
2023-03-08T06:16:36.859Z,99482.44
2023-03-08T06:19:24.693Z,99486.09
2023-03-08T06:22:17.210Z,99486.69
2023-03-08T06:25:06.568Z,99476.28
2023-03-08T06:27:56.671Z,99459.84
2023-03-08T06:30:51.624Z,99490.81
2023-03-08T06:33:35.239Z,99480.31
2023-03-08T06:36:24.098Z,99455.41
2023-03-08T06:39:11.873Z,99488.63
2023-03-08T06:42:01.580Z,99493.13
2023-03-08T06:44:49.622Z,99497.47
2023-03-08T06:47:37.611Z,99505.41
2023-03-08T06:50:25.867Z,99514.13
2023-03-08T06:53:14.403Z,99515.72
2023-03-08T06:56:28.322Z,99504.97
2023-03-08T06:59:16.174Z,99506.94
2023-03-08T07:02:03.869Z,99511.75
2023-03-08T07:04:51.662Z,99514.13
2023-03-08T07:07:40.302Z,99489.16
2023-03-08T07:10:28.006Z,99518.13
2023-03-08T07:13:15.669Z,99516.13
2023-03-08T07:16:10.830Z,99525.66
2023-03-08T07:18:58.558Z,99518.94
2023-03-08T07:21:46.217Z,99514.56
2023-03-08T07:24:33.931Z,99497.09
2023-03-08T07:27:21.606Z,99518.03
2023-03-08T07:30:10.781Z,99528.22
2023-03-08T07:32:58.489Z,99523.50
2023-03-08T07:35:46.429Z,99533.31
2023-03-08T07:38:34.193Z,99506.59
2023-03-08T07:41:22.083Z,99539.03
2023-03-08T07:44:09.826Z,99538.13
2023-03-08T07:46:57.486Z,99504.66
2023-03-08T07:49:45.531Z,99528.22
2023-03-08T07:52:33.290Z,99526.47
2023-03-08T07:55:21.739Z,99530.41
2023-03-08T07:58:09.441Z,99506.03
2023-03-08T08:00:59.650Z,99515.66
2023-03-08T08:03:47.551Z,99516.44
2023-03-08T08:06:39.845Z,99536.28
2023-03-08T08:09:27.573Z,99510.53
2023-03-08T08:12:15.545Z,99533.31
2023-03-08T08:15:03.378Z,99533.25
2023-03-08T08:17:53.356Z,99542.06
2023-03-08T08:20:41.091Z,99549.88
2023-03-08T08:23:29.330Z,99538.66
2023-03-08T08:26:22.247Z,99508.97
2023-03-08T08:29:09.932Z,99552.69
2023-03-08T08:31:58.089Z,99547.28
2023-03-08T08:34:45.926Z,99544.50
2023-03-08T08:37:34.569Z,99533.50
2023-03-08T08:40:22.275Z,99534.88
2023-03-08T08:43:09.943Z,99559.53
2023-03-08T08:45:59.541Z,99467.41
2023-03-08T08:48:47.280Z,99519.38
2023-03-08T08:51:35.274Z,99554.19
2023-03-08T08:54:23.037Z,99553.81
2023-03-08T08:57:10.769Z,99533.41
2023-03-08T08:59:58.431Z,99547.25
2023-03-08T09:02:46.159Z,99544.72
2023-03-08T09:05:37.899Z,99533.69
2023-03-08T09:08:25.568Z,99551.81
2023-03-08T09:11:13.365Z,99524.19
2023-03-08T09:14:02.828Z,99521.19
2023-03-08T09:16:50.775Z,99549.75
2023-03-08T09:19:38.839Z,99543.06
2023-03-08T09:22:27.380Z,99535.13
2023-03-08T09:25:15.485Z,99545.72
2023-03-08T09:28:03.112Z,99517.59
2023-03-08T09:30:50.981Z,99546.25
2023-03-08T09:33:43.045Z,99540.88
2023-03-08T09:36:30.591Z,99539.53
2023-03-08T09:39:18.314Z,99537.81
2023-03-08T09:42:07.222Z,99534.84
2023-03-08T09:45:04.184Z,99482.53
2023-03-08T09:48:11.390Z,99536.50
2023-03-08T09:51:05.264Z,99519.69
2023-03-08T09:54:00.146Z,99517.50
2023-03-08T09:56:51.021Z,99517.84
2023-03-08T09:59:45.989Z,99491.53
2023-03-08T10:03:03.056Z,99521.28
2023-03-08T10:05:53.794Z,99503.16
2023-03-08T10:08:52.992Z,99519.09
2023-03-08T10:11:59.252Z,99517.28
2023-03-08T10:14:52.137Z,99506.25
2023-03-08T10:20:37.647Z,99497.97
2023-03-08T10:23:26.714Z,99468.16
2023-03-08T10:26:15.820Z,99496.75
2023-03-08T10:29:04.083Z,99501.09
2023-03-08T10:31:51.800Z,99495.72
2023-03-08T10:34:39.443Z,99495.81
2023-03-08T10:37:32.466Z,99486.88
2023-03-08T10:40:23.053Z,99478.31
2023-03-08T10:43:28.836Z,99473.44
2023-03-08T10:46:22.235Z,99472.91
2023-03-08T10:49:16.047Z,99467.72
2023-03-08T10:52:03.876Z,99475.38
2023-03-08T10:55:10.509Z,99469.19
2023-03-08T10:58:00.030Z,99467.69
2023-03-08T11:00:54.634Z,99449.63
2023-03-08T11:03:42.222Z,99466.66
2023-03-08T11:06:30.121Z,99451.94
2023-03-08T11:09:28.277Z,99458.88
2023-03-08T11:12:26.820Z,99440.88
2023-03-08T11:15:19.497Z,99436.00
2023-03-08T11:18:14.358Z,99418.25
2023-03-08T11:21:14.047Z,99428.00
2023-03-08T11:24:27.534Z,99424.66
2023-03-08T11:27:24.228Z,99399.50
2023-03-08T11:30:30.696Z,99415.81
2023-03-08T11:33:45.732Z,99408.53
2023-03-08T11:37:02.875Z,99399.50
2023-03-08T11:39:59.788Z,99394.28
2023-03-08T11:42:56.230Z,99361.47
2023-03-08T11:46:24.889Z,99390.09
2023-03-08T11:49:24.247Z,99369.03
2023-03-08T11:52:35.872Z,99368.31
2023-03-08T11:55:33.934Z,99387.25
2023-03-08T11:58:31.074Z,99390.81
2023-03-08T12:01:24.692Z,99371.56
2023-03-08T12:04:37.056Z,99389.53
2023-03-08T12:07:48.270Z,99380.59
2023-03-08T12:11:03.256Z,99384.44
2023-03-08T12:13:57.079Z,99351.34
2023-03-08T12:17:25.290Z,99377.13
2023-03-08T12:20:25.598Z,99293.22
2023-03-08T12:23:34.239Z,99310.13
2023-03-08T12:26:33.945Z,99345.56
2023-03-08T12:29:47.935Z,99360.03
2023-03-08T12:32:39.759Z,99372.34
2023-03-08T12:35:29.507Z,99368.31
2023-03-08T12:38:20.281Z,99362.28
2023-03-08T12:41:23.022Z,99345.91
2023-03-08T12:44:27.746Z,99373.88
2023-03-08T12:47:15.379Z,99338.59
2023-03-08T12:50:16.595Z,99356.16
2023-03-08T12:53:22.267Z,99361.66
2023-03-08T12:56:09.906Z,99368.81
2023-03-08T12:58:59.120Z,99363.44
2023-03-08T13:01:59.253Z,99361.44
2023-03-08T13:04:47.016Z,99358.69
2023-03-08T13:07:40.333Z,99357.03
2023-03-08T13:10:36.030Z,99346.63
2023-03-08T13:13:39.661Z,99355.31
2023-03-08T13:16:40.100Z,99356.38
2023-03-08T13:19:31.085Z,99352.81
2023-03-08T13:22:25.842Z,99354.38
2023-03-08T13:25:42.209Z,99350.56
2023-03-08T13:28:47.337Z,99325.09
2023-03-08T13:31:37.702Z,99338.22
2023-03-08T13:34:29.002Z,99311.88
2023-03-08T13:37:27.660Z,99342.16
2023-03-08T13:40:19.369Z,99280.09
2023-03-08T13:43:14.340Z,99343.47
2023-03-08T13:46:11.181Z,99338.81
2023-03-08T13:48:59.189Z,99342.59
2023-03-08T13:51:49.310Z,99346.69
2023-03-08T13:54:42.859Z,99346.53
2023-03-08T13:57:34.424Z,99344.06
2023-03-08T14:00:29.698Z,99300.94
2023-03-08T14:03:21.254Z,99344.34
2023-03-08T14:06:24.032Z,99355.75
2023-03-08T14:09:11.698Z,99358.41
2023-03-08T14:12:02.865Z,99357.97
2023-03-08T14:14:54.898Z,99359.69
2023-03-08T14:17:42.638Z,99329.00
2023-03-08T14:20:30.871Z,99356.25
2023-03-08T14:23:26.595Z,99333.13
2023-03-08T14:26:35.180Z,99351.78
2023-03-08T14:29:42.767Z,99351.72
2023-03-08T14:32:32.645Z,99351.59
2023-03-08T14:35:24.311Z,99338.84
2023-03-08T14:38:33.874Z,99349.81
2023-03-08T14:41:35.798Z,99349.97
2023-03-08T14:44:27.282Z,99346.00
2023-03-08T14:47:29.227Z,99327.84
2023-03-08T14:50:24.541Z,99325.91
2023-03-08T14:53:55.141Z,99355.03
2023-03-08T14:56:42.936Z,99359.41
2023-03-08T14:59:32.731Z,99359.25
2023-03-08T15:02:20.386Z,99364.09
2023-03-08T15:05:22.440Z,99353.19
2023-03-08T15:08:14.895Z,99345.16
2023-03-08T15:11:02.659Z,99356.03
2023-03-08T15:13:53.075Z,99331.56
2023-03-08T15:16:41.722Z,99365.13
2023-03-08T15:19:29.546Z,99360.03
2023-03-08T15:22:17.875Z,99365.91
2023-03-08T15:25:13.733Z,99361.88
2023-03-08T15:28:01.521Z,99352.47
2023-03-08T15:30:53.392Z,99374.69
2023-03-08T15:33:41.057Z,99365.81
2023-03-08T15:36:34.981Z,99351.56
2023-03-08T15:39:25.800Z,99372.34
2023-03-08T15:42:13.868Z,99338.50
2023-03-08T15:45:16.988Z,99283.03
2023-03-08T15:48:07.514Z,99367.06
2023-03-08T15:51:00.308Z,99351.09
2023-03-08T15:53:49.284Z,99333.41
2023-03-08T15:56:42.406Z,99350.84
2023-03-08T15:59:31.317Z,99361.00
2023-03-08T16:02:20.989Z,99304.09
2023-03-08T16:05:10.600Z,99344.66
2023-03-08T16:08:00.609Z,99343.53
2023-03-08T16:10:48.326Z,99351.16
2023-03-08T16:13:36.007Z,99352.03
2023-03-08T16:16:42.243Z,99352.91
2023-03-08T16:19:33.463Z,99351.78
2023-03-08T16:22:21.216Z,99347.06
2023-03-08T16:25:10.203Z,99337.25
2023-03-08T16:27:57.829Z,99354.72
2023-03-08T16:30:47.975Z,99348.00
2023-03-08T16:33:39.720Z,99348.75
2023-03-08T16:36:27.355Z,99333.66
2023-03-08T16:39:15.366Z,99345.94
2023-03-08T16:42:03.012Z,99329.28
2023-03-08T16:44:55.246Z,99338.31
2023-03-08T16:47:44.733Z,99363.22
2023-03-08T16:50:32.489Z,99369.16
2023-03-08T16:53:20.486Z,99366.66
2023-03-08T16:56:25.711Z,99369.38
2023-03-08T16:59:15.174Z,99381.13
2023-03-08T17:02:02.805Z,99367.19
2023-03-08T17:04:50.829Z,99368.66
2023-03-08T17:07:38.788Z,99361.00
2023-03-08T17:10:26.555Z,99385.25
2023-03-08T17:13:14.288Z,99394.56
2023-03-08T17:16:02.654Z,99373.44
2023-03-08T17:18:51.515Z,99397.19
2023-03-08T17:21:39.426Z,99369.72
2023-03-08T17:24:28.426Z,99406.19
2023-03-08T17:27:16.142Z,99417.56
2023-03-08T17:30:04.515Z,99422.88
2023-03-08T17:32:52.735Z,99403.41
2023-03-08T17:35:42.522Z,99428.59
2023-03-08T17:38:30.206Z,99414.91
2023-03-08T17:41:17.971Z,99441.38
2023-03-08T17:44:08.690Z,99448.84
2023-03-08T17:46:56.369Z,99459.47
2023-03-08T17:49:44.289Z,99471.16
2023-03-08T17:52:33.281Z,99465.03
2023-03-08T17:55:20.956Z,99474.72
2023-03-08T17:58:08.712Z,99476.41
2023-03-08T18:00:56.936Z,99467.63
2023-03-08T18:03:45.180Z,99466.94
2023-03-08T18:06:35.517Z,99464.59
2023-03-08T18:09:24.316Z,99458.13
2023-03-08T18:12:12.032Z,99473.91
2023-03-08T18:15:01.501Z,99469.06
2023-03-08T18:17:49.600Z,99461.91
2023-03-08T18:20:37.284Z,99470.53
2023-03-08T18:23:25.359Z,99469.47
2023-03-08T18:26:15.316Z,99441.41
2023-03-08T18:29:03.206Z,99476.63
2023-03-08T18:31:53.351Z,99472.66
2023-03-08T18:34:41.658Z,99447.47
2023-03-08T18:37:31.265Z,99450.78
2023-03-08T18:40:19.980Z,99483.50
2023-03-08T18:43:07.663Z,99483.59
2023-03-08T18:45:56.968Z,99489.19
2023-03-08T18:48:47.684Z,99478.25
2023-03-08T18:51:37.662Z,99482.47
2023-03-08T18:54:25.549Z,99484.22
2023-03-08T18:57:13.284Z,99471.19
2023-03-08T19:00:01.074Z,99467.22
2023-03-08T19:02:48.726Z,99474.94
2023-03-08T19:05:36.536Z,99479.13
2023-03-08T19:08:28.590Z,99479.00
2023-03-08T19:11:24.745Z,99483.41
2023-03-08T19:14:12.868Z,99481.53
2023-03-08T19:17:01.160Z,99464.28
2023-03-08T19:19:49.110Z,99429.94
2023-03-08T19:22:36.964Z,99487.78
2023-03-08T19:25:25.047Z,99481.91
2023-03-08T19:28:12.635Z,99460.75
2023-03-08T19:31:00.411Z,99492.00
2023-03-08T19:33:50.103Z,99498.06
2023-03-08T19:36:38.291Z,99501.19
2023-03-08T19:39:28.472Z,99499.53
2023-03-08T19:42:17.410Z,99469.63
2023-03-08T19:45:05.562Z,99508.84
2023-03-08T19:47:53.445Z,99502.97
2023-03-08T19:50:47.255Z,99503.44
2023-03-08T19:53:34.973Z,99506.19
2023-03-08T19:56:24.028Z,99500.78
2023-03-08T19:59:11.919Z,99482.56
2023-03-08T20:01:59.757Z,99459.59
2023-03-08T20:04:47.410Z,99505.81
2023-03-08T20:07:35.091Z,99493.88
2023-03-08T20:10:23.038Z,99507.88
2023-03-08T20:13:10.766Z,99483.41
2023-03-08T20:15:58.774Z,99510.56
2023-03-08T20:18:49.385Z,99513.72
2023-03-08T20:21:37.110Z,99517.34
2023-03-08T20:24:24.826Z,99509.16
2023-03-08T20:27:12.493Z,99510.19
2023-03-08T20:30:00.341Z,99505.13
2023-03-08T20:32:48.368Z,99502.56
2023-03-08T20:35:36.088Z,99493.03
2023-03-08T20:38:30.266Z,99509.16
2023-03-08T20:41:20.689Z,99483.06
2023-03-08T20:44:11.184Z,99504.09
2023-03-08T20:46:58.909Z,99503.28
2023-03-08T20:49:46.795Z,99482.06
2023-03-08T20:53:03.207Z,99508.22
2023-03-08T20:55:54.185Z,99504.03
2023-03-08T20:58:42.407Z,99486.03
2023-03-08T21:01:32.565Z,99501.88
2023-03-08T21:04:20.486Z,99505.41
2023-03-08T21:07:08.323Z,99503.94
2023-03-08T21:09:56.023Z,99505.72
2023-03-08T21:12:43.846Z,99489.63
2023-03-08T21:15:31.484Z,99471.47
2023-03-08T21:18:19.139Z,99490.91
2023-03-08T21:21:06.897Z,99485.78
2023-03-08T21:23:59.882Z,99492.66
2023-03-08T21:26:47.652Z,99461.84
2023-03-08T21:29:35.359Z,99473.09
2023-03-08T21:32:23.467Z,99487.59
2023-03-08T21:35:11.229Z,99481.56
2023-03-08T21:37:59.330Z,99477.34
2023-03-08T21:40:47.061Z,99461.94
2023-03-08T21:43:34.914Z,99470.16
2023-03-08T21:46:23.449Z,99449.25
2023-03-08T21:49:17.513Z,99478.84
2023-03-08T21:52:05.233Z,99472.91
2023-03-08T21:54:52.909Z,99484.44
2023-03-08T21:57:40.677Z,99488.34
2023-03-08T22:00:28.395Z,99458.50
2023-03-08T22:03:16.374Z,99471.31
2023-03-08T22:06:04.357Z,99461.94
2023-03-08T22:08:52.788Z,99446.06
2023-03-08T22:11:40.934Z,99472.66
2023-03-08T22:14:29.183Z,99482.28
2023-03-08T22:17:17.231Z,99472.56
2023-03-08T22:20:06.488Z,99494.94
2023-03-08T22:22:54.563Z,99483.28
2023-03-08T22:25:42.954Z,99488.31
2023-03-08T22:28:38.444Z,99489.00
2023-03-08T22:31:28.849Z,99472.06
2023-03-08T22:34:16.647Z,99498.59
2023-03-08T22:37:06.312Z,99488.53
2023-03-08T22:39:54.229Z,99464.06
2023-03-08T22:42:42.042Z,99486.13
2023-03-08T22:45:30.031Z,99481.00
2023-03-08T22:48:18.234Z,99488.56
2023-03-08T22:51:11.117Z,99480.78
2023-03-08T22:54:04.041Z,99484.19
2023-03-08T22:56:51.652Z,99478.69
2023-03-08T22:59:39.756Z,99470.59
2023-03-08T23:02:28.739Z,99471.28
2023-03-08T23:05:19.941Z,99482.69
2023-03-08T23:08:07.615Z,99464.22
2023-03-08T23:10:55.332Z,99469.47
2023-03-08T23:13:43.760Z,99474.72
2023-03-08T23:16:32.206Z,99471.88
2023-03-08T23:19:21.788Z,99445.91
2023-03-08T23:22:09.521Z,99456.88
2023-03-08T23:24:57.182Z,99477.69
2023-03-08T23:27:45.469Z,99466.28
2023-03-08T23:30:33.298Z,99451.19
2023-03-08T23:33:21.222Z,99465.84
2023-03-08T23:36:11.726Z,99480.88
2023-03-08T23:39:02.021Z,99469.38
2023-03-08T23:41:49.803Z,99489.81
2023-03-08T23:44:38.319Z,99463.97
2023-03-08T23:47:26.249Z,99484.97
2023-03-08T23:50:14.120Z,99482.38
2023-03-08T23:53:01.722Z,99488.19
2023-03-08T23:55:49.411Z,99482.81
2023-03-08T23:58:37.058Z,99474.91
